Time;durP1;ratioP1;P1;durP2;ratioP2;P2;SDS_P1;SDS_P2;PMS_P1;PMS_P2;Temp;Humidity;BMP_temperature;BMP_pressure;BME280_temperature;BME280_humidity;BME280_pressure;Samples;Min_cycle;Max_cycle;Signal;HPM_P1;HPM_P2
2021/08/15 00:00:14;;;;;;;2.10;1.90;;;30.60;40.20;;;;;;4973104;28;20057;-60
2021/08/15 00:02:42;;;;;;;2.00;1.85;;;30.60;40.20;;;;;;4972698;28;20052;-60
2021/08/15 00:05:10;;;;;;;2.38;1.48;;;30.70;40.30;;;;;;4986790;28;20046;-62
2021/08/15 00:07:39;;;;;;;1.58;1.48;;;30.70;40.30;;;;;;4971117;28;20051;-60
2021/08/15 00:10:07;;;;;;;2.25;2.05;;;30.60;40.30;;;;;;4984862;28;20061;-60
2021/08/15 00:12:35;;;;;;;1.88;1.40;;;30.60;40.30;;;;;;4986113;28;20050;-61
2021/08/15 00:15:03;;;;;;;1.52;1.42;;;30.60;40.30;;;;;;4967366;28;20105;-61
2021/08/15 00:17:31;;;;;;;3.35;1.98;;;30.60;40.40;;;;;;4972168;28;20050;-61
2021/08/15 00:19:58;;;;;;;2.55;1.00;;;30.60;40.40;;;;;;4987997;28;20622;-62
2021/08/15 00:22:25;;;;;;;1.95;1.85;;;30.60;40.40;;;;;;4984741;28;20423;-61
2021/08/15 00:24:54;;;;;;;3.38;2.50;;;30.50;40.40;;;;;;4982016;28;20576;-59
2021/08/15 00:27:21;;;;;;;2.30;1.75;;;30.50;40.40;;;;;;4983560;28;20801;-60
2021/08/15 00:29:49;;;;;;;4.28;2.45;;;30.50;40.50;;;;;;4968230;28;20046;-60
2021/08/15 00:32:16;;;;;;;5.47;2.10;;;30.50;40.50;;;;;;4972258;28;20061;-60
2021/08/15 00:34:43;;;;;;;2.30;1.73;;;30.50;40.50;;;;;;4984897;28;20062;-61
2021/08/15 00:37:10;;;;;;;1.38;1.23;;;30.50;40.50;;;;;;4977013;28;20440;-60
2021/08/15 00:39:38;;;;;;;2.30;2.20;;;30.50;40.50;;;;;;4978755;28;20448;-60
2021/08/15 00:42:07;;;;;;;3.10;2.15;;;30.50;40.60;;;;;;4983411;28;20555;-60
2021/08/15 00:44:34;;;;;;;2.90;1.45;;;30.50;40.60;;;;;;4985876;28;20368;-60
2021/08/15 00:47:01;;;;;;;4.05;2.03;;;30.50;40.60;;;;;;4985469;28;20129;-60
2021/08/15 00:49:28;;;;;;;2.95;2.58;;;30.50;40.70;;;;;;4978069;28;20070;-60
2021/08/15 00:51:56;;;;;;;4.85;2.00;;;30.40;40.60;;;;;;4983393;28;20042;-60
2021/08/15 00:54:23;;;;;;;1.63;1.52;;;30.40;40.60;;;;;;4991236;28;20053;-60
2021/08/15 00:56:50;;;;;;;2.00;1.30;;;30.40;40.70;;;;;;4987626;28;20501;-60
2021/08/15 00:59:20;;;;;;;3.25;2.10;;;30.40;40.70;;;;;;4990372;28;20583;-60
2021/08/15 01:01:47;;;;;;;2.85;1.65;;;30.40;40.70;;;;;;4988533;28;20046;-60
2021/08/15 01:04:15;;;;;;;2.38;1.73;;;30.40;40.80;;;;;;4987125;28;20038;-61
2021/08/15 01:06:42;;;;;;;3.20;2.08;;;30.40;40.80;;;;;;4985724;28;20051;-59
2021/08/15 01:09:09;;;;;;;1.83;1.50;;;30.40;40.80;;;;;;4988776;28;20042;-59
2021/08/15 01:11:37;;;;;;;2.33;2.17;;;30.40;40.80;;;;;;4958444;28;20034;-60
2021/08/15 01:14:06;;;;;;;1.52;1.35;;;30.40;40.90;;;;;;4989241;28;20155;-60
2021/08/15 01:16:35;;;;;;;2.40;1.67;;;30.40;40.90;;;;;;4981594;28;20151;-59
2021/08/15 01:19:03;;;;;;;2.03;1.85;;;30.40;40.90;;;;;;4981010;28;20278;-61
2021/08/15 01:21:30;;;;;;;2.10;1.50;;;30.40;40.90;;;;;;4980408;28;20054;-60
2021/08/15 01:23:57;;;;;;;2.70;1.60;;;30.40;41.00;;;;;;4986048;28;20142;-60
2021/08/15 01:26:25;;;;;;;2.38;2.17;;;30.30;40.90;;;;;;4989820;28;20248;-60
2021/08/15 01:28:53;;;;;;;5.95;2.10;;;30.30;41.00;;;;;;4987902;28;20046;-60
2021/08/15 01:31:23;;;;;;;3.00;1.58;;;30.30;41.00;;;;;;4986731;28;20058;-59
2021/08/15 01:33:51;;;;;;;3.08;2.08;;;30.30;41.00;;;;;;4988924;28;20104;-60
2021/08/15 01:36:21;;;;;;;2.92;2.03;;;30.30;41.00;;;;;;4986948;28;20070;-60
2021/08/15 01:38:49;;;;;;;2.45;1.90;;;30.30;41.00;;;;;;4975185;28;20508;-60
2021/08/15 01:41:17;;;;;;;2.63;1.30;;;30.30;41.10;;;;;;4990445;28;20057;-60
2021/08/15 01:43:50;;;;;;;4.68;2.30;;;30.30;41.10;;;;;;4970189;28;20512;-60
2021/08/15 01:46:19;;;;;;;2.90;2.00;;;30.30;41.10;;;;;;4986347;28;20070;-60
2021/08/15 01:48:47;;;;;;;1.70;1.60;;;30.20;41.00;;;;;;4985994;28;20046;-60
2021/08/15 01:51:15;;;;;;;2.38;1.80;;;30.20;41.10;;;;;;4987371;28;20058;-60
2021/08/15 01:53:43;;;;;;;2.95;2.08;;;30.20;41.10;;;;;;4977960;28;20082;-60
2021/08/15 01:56:10;;;;;;;3.35;2.47;;;30.20;41.10;;;;;;4990124;28;20069;-60
2021/08/15 01:58:38;;;;;;;3.13;1.77;;;30.20;41.20;;;;;;4966739;28;20046;-62
2021/08/15 02:01:05;;;;;;;1.88;1.75;;;30.20;41.20;;;;;;4982453;28;20045;-58
2021/08/15 02:03:37;;;;;;;2.28;1.95;;;30.20;41.20;;;;;;4985574;28;20046;-60
2021/08/15 02:06:05;;;;;;;2.20;1.55;;;30.20;41.90;;;;;;4988511;28;20038;-60
2021/08/15 02:08:32;;;;;;;2.13;1.70;;;30.20;41.30;;;;;;4973911;28;20034;-61
2021/08/15 02:10:59;;;;;;;3.40;1.50;;;30.20;41.30;;;;;;4974484;28;20043;-59
2021/08/15 02:13:26;;;;;;;2.90;1.67;;;30.20;41.30;;;;;;4986582;28;20039;-60
2021/08/15 02:15:53;;;;;;;1.98;1.50;;;30.20;41.40;;;;;;4981481;28;20053;-59
2021/08/15 02:18:21;;;;;;;2.55;1.58;;;30.20;41.40;;;;;;4974619;28;20164;-60
2021/08/15 02:20:49;;;;;;;2.85;2.08;;;30.10;41.40;;;;;;4978036;28;20034;-60
2021/08/15 02:23:17;;;;;;;4.78;3.22;;;30.10;41.40;;;;;;4974149;28;20038;-59
2021/08/15 02:25:44;;;;;;;3.63;1.60;;;30.10;41.40;;;;;;4986851;28;20054;-60
2021/08/15 02:28:11;;;;;;;4.57;1.85;;;30.10;41.50;;;;;;4978926;28;20035;-60
2021/08/15 02:30:38;;;;;;;2.72;1.50;;;30.10;41.50;;;;;;4978823;28;20535;-60
2021/08/15 02:33:05;;;;;;;2.55;2.05;;;30.10;41.50;;;;;;4987944;28;20042;-60
2021/08/15 02:35:33;;;;;;;3.17;1.20;;;30.10;41.60;;;;;;4975672;28;20034;-59
2021/08/15 02:38:02;;;;;;;4.30;2.40;;;30.10;41.60;;;;;;4973883;28;20042;-60
2021/08/15 02:40:29;;;;;;;3.95;1.77;;;30.10;41.60;;;;;;4977733;28;20054;-60
2021/08/15 02:42:57;;;;;;;1.92;1.70;;;30.10;41.60;;;;;;4982292;28;20101;-59
2021/08/15 02:45:25;;;;;;;1.73;1.52;;;30.10;41.70;;;;;;4983589;28;20049;-60
2021/08/15 02:47:53;;;;;;;3.25;1.33;;;30.10;41.70;;;;;;4971679;28;20050;-60
2021/08/15 02:50:21;;;;;;;3.08;2.00;;;30.10;41.70;;;;;;4972531;28;20042;-60
2021/08/15 02:52:49;;;;;;;5.45;1.35;;;30.10;41.80;;;;;;4986706;28;20050;-60
2021/08/15 02:55:18;;;;;;;1.77;1.67;;;30.00;41.80;;;;;;4985532;28;20086;-60
2021/08/15 02:57:45;;;;;;;1.40;1.30;;;30.00;41.80;;;;;;4981959;28;20046;-60
2021/08/15 03:00:13;;;;;;;1.88;1.25;;;30.00;41.80;;;;;;4977962;28;20368;-60
2021/08/15 03:02:40;;;;;;;3.08;1.30;;;30.00;41.80;;;;;;4976412;28;20035;-60
2021/08/15 03:05:10;;;;;;;3.90;1.35;;;30.00;41.90;;;;;;4973785;28;20049;-58
2021/08/15 03:07:38;;;;;;;2.13;1.42;;;30.00;41.90;;;;;;4985964;28;20608;-58
2021/08/15 03:10:07;;;;;;;4.53;2.03;;;30.00;41.90;;;;;;4984640;28;20046;-60
2021/08/15 03:12:35;;;;;;;4.68;1.45;;;30.00;42.00;;;;;;4983721;28;20144;-59
2021/08/15 03:15:02;;;;;;;1.15;0.85;;;30.00;42.00;;;;;;4987297;28;20038;-60
2021/08/15 03:17:30;;;;;;;1.30;1.13;;;30.00;42.00;;;;;;4974461;28;20148;-60
2021/08/15 03:19:57;;;;;;;3.30;1.30;;;29.90;42.00;;;;;;4973162;28;20058;-60
2021/08/15 03:22:24;;;;;;;4.53;1.73;;;29.90;42.00;;;;;;4984509;28;20156;-60
2021/08/15 03:24:51;;;;;;;3.08;1.95;;;29.90;42.00;;;;;;4980558;28;20042;-60
2021/08/15 03:27:18;;;;;;;1.20;1.10;;;29.90;42.00;;;;;;4976207;28;20066;-60
2021/08/15 03:29:46;;;;;;;1.50;1.38;;;29.90;42.10;;;;;;4985660;28;20070;-60
2021/08/15 03:32:14;;;;;;;2.17;1.80;;;29.90;42.10;;;;;;4987677;28;20064;-58
2021/08/15 03:34:41;;;;;;;1.38;1.27;;;29.90;42.70;;;;;;4975679;28;20174;-58
2021/08/15 03:37:08;;;;;;;1.88;1.60;;;29.90;42.10;;;;;;4982754;28;20089;-60
2021/08/15 03:39:35;;;;;;;1.83;1.45;;;29.90;42.10;;;;;;4982626;28;20082;-59
2021/08/15 03:42:03;;;;;;;3.35;1.50;;;29.90;42.20;;;;;;4973258;28;20062;-60
2021/08/15 03:44:32;;;;;;;2.13;1.75;;;29.90;42.20;;;;;;4988271;28;20038;-61
2021/08/15 03:47:00;;;;;;;1.65;1.30;;;29.90;42.30;;;;;;4972740;28;20042;-60
2021/08/15 03:49:28;;;;;;;1.90;1.75;;;29.90;42.30;;;;;;4976613;28;20047;-60
2021/08/15 03:51:55;;;;;;;6.03;1.60;;;29.80;42.20;;;;;;4981266;28;20050;-59
2021/08/15 03:54:23;;;;;;;1.42;1.33;;;29.80;42.20;;;;;;4984090;28;20531;-58
2021/08/15 03:56:50;;;;;;;1.20;1.02;;;29.90;42.30;;;;;;4976182;28;20069;-59
2021/08/15 03:59:19;;;;;;;3.20;1.55;;;29.80;42.30;;;;;;4972395;28;20046;-59
2021/08/15 04:01:47;;;;;;;2.72;1.30;;;29.80;42.30;;;;;;4985125;28;20046;-59
2021/08/15 04:04:16;;;;;;;2.42;2.17;;;29.80;42.30;;;;;;4983386;28;20042;-60
2021/08/15 04:06:43;;;;;;;2.08;1.17;;;29.80;42.30;;;;;;4970489;28;20097;-60
2021/08/15 04:09:11;;;;;;;2.92;1.48;;;29.80;42.40;;;;;;4985393;28;20137;-60
2021/08/15 04:11:39;;;;;;;1.35;0.80;;;29.80;42.40;;;;;;4972689;28;20038;-60
2021/08/15 04:14:06;;;;;;;2.83;1.40;;;29.80;43.00;;;;;;4968914;28;20046;-60
2021/08/15 04:16:33;;;;;;;4.63;1.73;;;29.80;42.40;;;;;;4973944;28;20039;-59
2021/08/15 04:19:00;;;;;;;1.77;1.45;;;29.80;42.40;;;;;;4981200;28;20046;-59
2021/08/15 04:21:29;;;;;;;2.53;1.63;;;29.80;42.50;;;;;;4983068;28;20074;-59
2021/08/15 04:23:56;;;;;;;2.10;1.20;;;29.80;42.50;;;;;;4974949;28;20492;-60
2021/08/15 04:26:23;;;;;;;1.27;1.13;;;29.80;42.50;;;;;;4991850;28;20129;-60
2021/08/15 04:28:50;;;;;;;2.97;1.58;;;29.80;42.50;;;;;;4977656;28;20125;-60
2021/08/15 04:31:17;;;;;;;2.45;1.23;;;29.70;42.50;;;;;;4987920;28;20153;-59
2021/08/15 04:33:44;;;;;;;2.95;1.13;;;29.80;42.60;;;;;;4984639;28;20125;-60
2021/08/15 04:36:11;;;;;;;2.95;1.77;;;29.80;42.60;;;;;;4980282;28;20085;-59
2021/08/15 04:38:39;;;;;;;4.22;1.27;;;29.80;42.60;;;;;;4975848;28;20038;-60
2021/08/15 04:41:07;;;;;;;1.75;1.10;;;29.70;42.60;;;;;;4990047;28;20038;-60
2021/08/15 04:43:34;;;;;;;3.28;1.55;;;29.70;42.60;;;;;;4988701;28;20524;-63
2021/08/15 04:46:02;;;;;;;2.28;1.75;;;29.70;42.60;;;;;;4986212;28;20053;-60
2021/08/15 04:48:29;;;;;;;1.30;1.10;;;29.70;42.70;;;;;;4986184;28;20130;-61
2021/08/15 04:50:56;;;;;;;1.92;0.85;;;29.70;42.70;;;;;;4979858;28;20062;-60
2021/08/15 04:53:23;;;;;;;2.22;1.77;;;29.70;42.70;;;;;;4975936;28;20052;-60
2021/08/15 04:55:52;;;;;;;3.13;0.93;;;29.70;42.70;;;;;;4988777;28;20055;-60
2021/08/15 04:58:19;;;;;;;4.00;1.05;;;29.70;42.70;;;;;;4987323;28;20054;-59
2021/08/15 05:00:46;;;;;;;3.90;1.58;;;29.60;42.70;;;;;;4983474;28;20057;-60
2021/08/15 05:03:15;;;;;;;1.65;1.30;;;29.70;42.80;;;;;;4977997;28;20149;-60
2021/08/15 05:05:42;;;;;;;3.65;1.13;;;29.60;42.70;;;;;;4990808;28;20512;-58
2021/08/15 05:08:10;;;;;;;3.67;1.80;;;29.60;42.70;;;;;;4975056;28;20089;-58
2021/08/15 05:10:37;;;;;;;1.88;1.10;;;29.60;42.80;;;;;;4988199;28;20042;-59
2021/08/15 05:13:06;;;;;;;2.05;1.40;;;29.60;42.80;;;;;;4986626;28;20073;-59
2021/08/15 05:15:33;;;;;;;1.45;1.13;;;29.60;42.80;;;;;;4986473;28;20038;-59
2021/08/15 05:18:02;;;;;;;3.13;1.20;;;29.60;42.80;;;;;;4986033;28;20130;-60
2021/08/15 05:20:29;;;;;;;1.85;1.73;;;29.60;43.40;;;;;;4989725;28;20042;-59
2021/08/15 05:22:57;;;;;;;2.35;1.83;;;29.60;42.90;;;;;;4991385;28;20608;-60
2021/08/15 05:25:24;;;;;;;2.92;1.13;;;29.60;42.90;;;;;;4980108;28;20055;-60
2021/08/15 05:27:51;;;;;;;1.00;0.95;;;29.60;43.00;;;;;;4979926;28;20047;-60
2021/08/15 05:30:20;;;;;;;2.00;1.33;;;29.60;43.00;;;;;;4982773;28;20381;-60
2021/08/15 05:32:47;;;;;;;1.45;1.00;;;29.60;43.00;;;;;;4987637;28;20046;-58
2021/08/15 05:35:14;;;;;;;1.77;0.85;;;29.60;43.00;;;;;;4973860;28;20045;-59
2021/08/15 05:37:42;;;;;;;3.58;1.10;;;29.60;43.00;;;;;;4991723;28;20089;-58
2021/08/15 05:40:10;;;;;;;1.60;0.80;;;29.60;43.00;;;;;;4990841;28;20045;-59
2021/08/15 05:42:37;;;;;;;1.92;1.30;;;29.60;43.10;;;;;;4991070;28;20590;-59
2021/08/15 05:45:05;;;;;;;1.05;1.05;;;29.60;43.10;;;;;;4986190;28;20035;-58
2021/08/15 05:47:34;;;;;;;0.65;0.40;;;29.60;43.10;;;;;;4988865;28;20081;-59
2021/08/15 05:50:01;;;;;;;1.67;1.33;;;29.60;43.10;;;;;;4988105;28;20045;-59
2021/08/15 05:52:29;;;;;;;3.33;1.50;;;29.50;43.10;;;;;;4986759;28;20049;-59
2021/08/15 05:54:56;;;;;;;2.55;1.30;;;29.60;43.20;;;;;;4985731;28;20049;-59
2021/08/15 05:57:23;;;;;;;2.88;1.50;;;29.50;43.10;;;;;;4985371;28;20049;-60
2021/08/15 05:59:50;;;;;;;2.80;2.25;;;29.60;43.20;;;;;;4990026;28;20056;-59
2021/08/15 06:02:17;;;;;;;1.10;0.73;;;29.50;43.20;;;;;;4974599;28;20575;-59
2021/08/15 06:04:45;;;;;;;2.28;1.25;;;29.60;43.20;;;;;;4987098;28;20545;-58
2021/08/15 06:07:13;;;;;;;1.35;1.05;;;29.60;43.30;;;;;;4985861;28;20046;-59
2021/08/15 06:09:41;;;;;;;4.00;1.63;;;29.50;43.20;;;;;;4985463;28;20046;-59
2021/08/15 06:12:08;;;;;;;2.70;1.15;;;29.60;43.30;;;;;;4985553;28;20041;-60
2021/08/15 06:14:36;;;;;;;4.95;1.33;;;29.50;43.30;;;;;;4986959;28;20034;-60
2021/08/15 06:17:04;;;;;;;1.48;1.35;;;29.50;43.30;;;;;;4989241;28;20049;-59
2021/08/15 06:19:31;;;;;;;1.80;0.65;;;29.50;43.30;;;;;;4986430;28;20049;-58
2021/08/15 06:22:00;;;;;;;3.13;1.10;;;29.50;43.30;;;;;;4984184;28;20047;-59
2021/08/15 06:24:28;;;;;;;1.65;0.70;;;29.50;43.40;;;;;;4985552;28;20473;-60
2021/08/15 06:26:55;;;;;;;1.90;1.00;;;29.50;43.40;;;;;;4978695;28;20614;-59
2021/08/15 06:29:22;;;;;;;2.25;1.27;;;29.60;43.50;;;;;;4974432;28;20041;-61
2021/08/15 06:31:49;;;;;;;3.55;0.93;;;29.50;43.40;;;;;;4971218;28;20053;-61
2021/08/15 06:34:16;;;;;;;1.45;0.65;;;29.50;43.40;;;;;;4985172;28;20130;-59
2021/08/15 06:36:43;;;;;;;3.55;1.50;;;29.50;43.40;;;;;;4979250;28;20045;-60
2021/08/15 06:39:12;;;;;;;1.05;0.95;;;29.50;43.40;;;;;;4978273;28;20075;-60
2021/08/15 06:41:40;;;;;;;8.02;1.35;;;29.50;43.40;;;;;;4976487;28;20066;-60
2021/08/15 06:44:08;;;;;;;1.88;1.15;;;29.60;44.20;;;;;;4973891;28;20050;-60
2021/08/15 06:46:35;;;;;;;5.53;1.83;;;29.50;43.40;;;;;;4985147;28;20490;-60
2021/08/15 06:49:03;;;;;;;4.05;0.68;;;29.50;43.50;;;;;;4984662;28;20061;-59
2021/08/15 06:51:30;;;;;;;3.33;0.75;;;29.50;43.50;;;;;;4984681;28;20121;-60
2021/08/15 06:53:57;;;;;;;2.40;0.68;;;29.50;43.50;;;;;;4985077;28;20053;-61
2021/08/15 06:56:25;;;;;;;2.85;0.65;;;29.60;43.60;;;;;;4989024;28;20043;-60
2021/08/15 06:58:52;;;;;;;1.70;0.80;;;29.60;43.60;;;;;;4973959;28;20555;-60
2021/08/15 07:01:19;;;;;;;2.25;1.30;;;29.50;43.50;;;;;;4984859;28;20090;-58
2021/08/15 07:03:47;;;;;;;3.17;1.23;;;29.60;43.60;;;;;;4984082;28;20165;-60
2021/08/15 07:06:14;;;;;;;1.00;0.90;;;29.60;43.60;;;;;;4985951;28;20054;-60
2021/08/15 07:08:41;;;;;;;2.63;1.33;;;29.60;43.60;;;;;;4975971;28;20519;-60
2021/08/15 07:11:08;;;;;;;1.63;1.15;;;29.60;43.60;;;;;;4973107;28;20058;-60
2021/08/15 07:13:37;;;;;;;4.75;0.98;;;29.60;43.60;;;;;;4985927;28;20064;-59
2021/08/15 07:16:05;;;;;;;3.95;0.93;;;29.60;43.60;;;;;;4984095;28;20043;-60
2021/08/15 07:18:33;;;;;;;1.88;1.10;;;29.60;43.60;;;;;;4986154;28;20053;-59
2021/08/15 07:21:02;;;;;;;3.10;1.27;;;29.60;43.60;;;;;;4987303;28;20416;-60
2021/08/15 07:23:30;;;;;;;1.17;0.60;;;29.60;43.60;;;;;;4972680;28;20495;-59
2021/08/15 07:25:57;;;;;;;1.88;0.95;;;29.60;43.60;;;;;;4973444;28;20125;-60
2021/08/15 07:28:24;;;;;;;3.22;1.05;;;29.60;43.70;;;;;;4984117;28;20524;-59
2021/08/15 07:30:52;;;;;;;2.92;2.38;;;29.60;43.70;;;;;;4984049;28;20082;-59
2021/08/15 07:33:19;;;;;;;4.50;3.58;;;29.60;43.70;;;;;;4984795;28;20034;-59
2021/08/15 07:35:46;;;;;;;4.72;2.58;;;29.60;43.70;;;;;;4972979;28;20042;-60
2021/08/15 07:38:14;;;;;;;3.97;3.25;;;29.60;43.70;;;;;;4987208;28;20392;-60
2021/08/15 07:40:41;;;;;;;5.20;4.75;;;29.60;43.70;;;;;;4975273;28;20043;-58
2021/08/15 07:43:08;;;;;;;4.63;4.22;;;29.60;43.70;;;;;;4983197;28;20046;-59
2021/08/15 07:45:35;;;;;;;3.75;3.45;;;29.60;43.70;;;;;;4982832;28;20047;-59
2021/08/15 07:48:05;;;;;;;6.45;3.78;;;29.60;43.70;;;;;;4973037;28;20504;-59
2021/08/15 07:50:36;;;;;;;3.90;2.92;;;29.70;43.80;;;;;;4985465;28;20682;-60
2021/08/15 07:53:17;;;;;;;3.65;3.00;;;29.70;43.80;;;;;;4986085;28;20121;-59
2021/08/15 07:55:45;;;;;;;3.55;3.15;;;29.70;43.70;;;;;;4974902;28;20063;-59
2021/08/15 07:58:13;;;;;;;6.13;2.67;;;29.70;43.80;;;;;;4976608;28;20508;-59
2021/08/15 08:00:40;;;;;;;5.15;2.80;;;29.70;43.80;;;;;;4976820;28;20066;-60
2021/08/15 08:03:08;;;;;;;3.90;2.50;;;29.70;43.80;;;;;;4974553;28;20049;-60
2021/08/15 08:05:35;;;;;;;2.42;2.28;;;29.70;43.80;;;;;;4986531;28;20051;-60
2021/08/15 08:08:04;;;;;;;3.53;3.22;;;29.70;43.80;;;;;;4987967;28;20042;-60
2021/08/15 08:10:31;;;;;;;5.20;4.63;;;29.70;43.80;;;;;;4984814;28;20080;-60
2021/08/15 08:12:58;;;;;;;7.10;6.40;;;29.70;43.80;;;;;;4984228;28;20531;-60
2021/08/15 08:15:25;;;;;;;8.18;7.40;;;29.70;43.80;;;;;;4983734;28;20050;-60
2021/08/15 08:17:53;;;;;;;9.90;8.05;;;29.70;43.80;;;;;;4983760;28;20141;-60
2021/08/15 08:20:21;;;;;;;8.02;6.28;;;29.80;43.90;;;;;;4972366;28;20513;-59
2021/08/15 08:22:48;;;;;;;8.05;6.65;;;29.80;43.80;;;;;;4985155;28;20039;-60
2021/08/15 08:25:16;;;;;;;8.38;6.90;;;29.80;43.80;;;;;;4983788;28;20055;-59
2021/08/15 08:27:44;;;;;;;9.40;5.38;;;29.80;43.80;;;;;;4981365;28;20137;-59
2021/08/15 08:30:12;;;;;;;7.38;4.68;;;29.80;43.90;;;;;;4976381;28;20137;-60
2021/08/15 08:32:40;;;;;;;5.78;4.10;;;29.80;43.90;;;;;;4972338;28;20053;-60
2021/08/15 08:35:08;;;;;;;6.18;4.57;;;29.80;43.90;;;;;;4986029;28;20159;-60
2021/08/15 08:37:36;;;;;;;3.78;3.47;;;29.80;43.90;;;;;;4973944;28;20039;-60
2021/08/15 08:40:04;;;;;;;4.65;4.25;;;29.80;43.90;;;;;;4977031;28;20090;-59
2021/08/15 08:42:32;;;;;;;4.15;3.70;;;29.80;43.90;;;;;;4977281;28;20068;-59
2021/08/15 08:45:02;;;;;;;6.05;3.42;;;29.80;43.90;;;;;;4956608;28;20046;-60
2021/08/15 08:47:30;;;;;;;4.07;2.72;;;29.80;43.90;;;;;;4988054;28;20053;-59
2021/08/15 08:49:58;;;;;;;6.13;3.70;;;29.80;43.90;;;;;;4972099;28;20049;-58
2021/08/15 08:52:29;;;;;;;5.60;4.20;;;29.80;43.90;;;;;;4975808;28;20078;-59
2021/08/15 08:55:04;;;;;;;4.72;3.20;;;29.80;43.90;;;;;;4976695;28;20084;-59
2021/08/15 08:57:31;;;;;;;6.53;4.43;;;29.80;43.90;;;;;;4976766;28;20117;-60
2021/08/15 09:00:00;;;;;;;4.32;3.70;;;29.90;44.60;;;;;;4977006;28;20049;-58
2021/08/15 09:02:27;;;;;;;4.43;3.70;;;29.90;44.00;;;;;;4973224;28;20042;-59
2021/08/15 09:04:54;;;;;;;6.03;3.08;;;29.90;43.90;;;;;;4988666;28;20053;-59
2021/08/15 09:07:24;;;;;;;3.92;2.60;;;29.80;43.90;;;;;;4988220;28;20050;-59
2021/08/15 09:09:53;;;;;;;4.85;2.90;;;29.90;44.00;;;;;;4984469;28;20134;-58
2021/08/15 09:12:22;;;;;;;7.65;3.25;;;29.90;44.00;;;;;;4985569;28;20041;-59
2021/08/15 09:15:07;;;;;;;6.25;3.13;;;29.90;44.10;;;;;;4990569;28;20057;-59
2021/08/15 09:17:35;;;;;;;5.15;2.58;;;29.90;44.10;;;;;;4974327;28;20580;-59
2021/08/15 09:20:02;;;;;;;5.93;2.65;;;29.90;44.80;;;;;;4975410;28;20049;-59
2021/08/15 09:22:31;;;;;;;4.65;2.30;;;29.90;44.10;;;;;;4979283;28;20085;-59
2021/08/15 09:25:00;;;;;;;3.88;2.25;;;29.90;44.10;;;;;;4978588;28;20050;-60
2021/08/15 09:27:31;;;;;;;2.90;2.55;;;29.90;44.10;;;;;;4975563;28;20094;-57
2021/08/15 09:30:19;;;;;;;4.47;2.33;;;29.90;44.10;;;;;;4975759;28;20038;-59
2021/08/15 09:32:53;;;;;;;6.20;2.72;;;29.90;44.10;;;;;;4987194;28;20053;-59
2021/08/15 09:35:23;;;;;;;3.40;2.72;;;30.00;44.20;;;;;;4975006;28;20034;-59
2021/08/15 09:37:56;;;;;;;4.35;2.30;;;30.00;44.30;;;;;;4972553;28;20046;-60
2021/08/15 09:40:28;;;;;;;4.38;2.20;;;30.00;44.30;;;;;;4987208;28;20042;-58
2021/08/15 09:42:58;;;;;;;2.72;2.30;;;29.90;44.20;;;;;;4985196;28;20153;-60
2021/08/15 09:45:44;;;;;;;2.13;1.95;;;30.00;44.30;;;;;;4990836;28;20523;-59
2021/08/15 09:48:20;;;;;;;4.28;1.80;;;30.00;44.30;;;;;;4987860;28;20401;-59
2021/08/15 09:51:15;;;;;;;5.15;2.60;;;30.00;44.30;;;;;;4975100;28;20047;-59
2021/08/15 09:53:44;;;;;;;4.85;2.47;;;30.00;44.30;;;;;;4917762;29;20064;-59
2021/08/15 09:56:12;;;;;;;1.90;1.80;;;30.00;44.40;;;;;;4929412;29;20063;-58
2021/08/15 09:58:41;;;;;;;2.75;2.03;;;30.10;44.40;;;;;;4931126;29;20142;-60
2021/08/15 10:01:09;;;;;;;2.58;2.15;;;30.10;44.50;;;;;;4930024;29;20040;-59
2021/08/15 10:03:37;;;;;;;2.78;2.47;;;30.10;44.50;;;;;;4929368;29;20063;-59
2021/08/15 10:06:05;;;;;;;4.93;1.90;;;30.10;44.50;;;;;;4930159;29;20047;-61
2021/08/15 10:08:33;;;;;;;2.15;2.05;;;30.10;44.50;;;;;;4929663;29;20544;-62
2021/08/15 10:11:01;;;;;;;2.17;1.80;;;30.10;44.50;;;;;;4929644;29;20056;-60
2021/08/15 10:13:28;;;;;;;2.47;2.28;;;30.10;44.50;;;;;;4930485;29;20062;-59
2021/08/15 10:16:02;;;;;;;1.83;1.45;;;30.20;44.60;;;;;;4928940;29;20516;-59
2021/08/15 10:18:31;;;;;;;1.52;1.40;;;30.10;44.50;;;;;;4929434;29;20044;-59
2021/08/15 10:21:10;;;;;;;2.25;2.13;;;30.20;44.60;;;;;;4929525;29;20099;-59
2021/08/15 10:23:39;;;;;;;1.98;1.42;;;30.20;44.60;;;;;;4928988;29;20055;-58
2021/08/15 10:26:52;;;;;;;2.45;2.30;;;30.20;44.60;;;;;;4929429;29;20040;-61
2021/08/15 10:29:43;;;;;;;1.92;1.48;;;30.20;44.50;;;;;;4892312;29;20759;-59
2021/08/15 10:32:24;;;;;;;1.98;1.60;;;30.20;44.60;;;;;;4927722;29;20067;-60
2021/08/15 10:35:15;;;;;;;2.38;2.15;;;30.20;44.60;;;;;;4911653;29;20044;-59
2021/08/15 10:37:48;;;;;;;2.80;2.03;;;30.30;44.70;;;;;;4924792;29;20195;-61
2021/08/15 10:40:47;;;;;;;2.85;2.05;;;30.30;44.80;;;;;;4923944;29;20051;-58
2021/08/15 10:43:17;;;;;;;1.75;1.65;;;30.30;44.70;;;;;;4912976;29;20048;-60
2021/08/15 10:45:44;;;;;;;1.63;1.52;;;30.30;44.80;;;;;;4924924;29;20126;-60
2021/08/15 10:48:25;;;;;;;5.10;2.05;;;30.30;44.70;;;;;;4928783;29;20553;-59
2021/08/15 10:50:54;;;;;;;2.08;1.95;;;30.40;44.70;;;;;;4929265;29;20130;-60
2021/08/15 10:53:38;;;;;;;1.55;1.50;;;30.30;44.70;;;;;;4913995;29;20111;-58
2021/08/15 10:56:07;;;;;;;2.42;2.22;;;30.40;44.70;;;;;;4927203;29;20169;-60
2021/08/15 10:58:39;;;;;;;1.67;1.58;;;30.40;44.70;;;;;;4930380;29;20059;-59
2021/08/15 11:01:06;;;;;;;3.90;1.92;;;30.40;44.70;;;;;;4926668;29;20048;-59
2021/08/15 11:03:40;;;;;;;4.80;1.75;;;30.40;45.30;;;;;;4924367;29;20043;-60
2021/08/15 11:06:45;;;;;;;2.03;1.92;;;30.40;44.70;;;;;;4980827;28;20169;-60
2021/08/15 11:09:12;;;;;;;2.08;1.80;;;30.50;44.60;;;;;;4973680;28;20125;-59
2021/08/15 11:12:07;;;;;;;3.67;2.00;;;30.40;44.60;;;;;;4973407;28;20153;-60
2021/08/15 11:14:35;;;;;;;3.33;1.58;;;30.50;44.60;;;;;;4974930;28;20078;-60
2021/08/15 11:17:13;;;;;;;2.28;2.10;;;30.50;44.60;;;;;;4988270;28;20068;-60
2021/08/15 11:19:42;;;;;;;4.15;1.83;;;30.50;44.50;;;;;;4972614;28;20054;-59
2021/08/15 11:22:32;;;;;;;2.47;1.67;;;30.50;44.60;;;;;;4977836;28;20786;-60
2021/08/15 11:25:02;;;;;;;1.70;1.52;;;30.60;44.60;;;;;;4957120;28;20062;-60
2021/08/15 11:27:32;;;;;;;1.98;1.88;;;30.60;45.20;;;;;;4977378;28;20051;-59
2021/08/15 11:30:04;;;;;;;1.30;1.25;;;30.60;44.60;;;;;;4977607;28;20050;-58
2021/08/15 11:32:33;;;;;;;1.55;1.05;;;30.60;44.50;;;;;;4972669;28;20602;-59
2021/08/15 11:35:04;;;;;;;2.38;1.52;;;30.60;44.50;;;;;;4986298;28;20065;-60
2021/08/15 11:37:34;;;;;;;2.08;1.80;;;30.70;44.60;;;;;;4976862;28;20134;-60
2021/08/15 11:40:16;;;;;;;1.15;1.10;;;30.60;44.50;;;;;;4977159;28;20484;-60
2021/08/15 11:42:44;;;;;;;1.60;1.50;;;30.70;44.50;;;;;;4979498;28;20062;-59
2021/08/15 11:45:13;;;;;;;1.67;1.25;;;30.70;44.50;;;;;;4984133;28;20045;-59
2021/08/15 11:47:41;;;;;;;3.78;1.88;;;30.70;44.50;;;;;;4985829;28;20042;-59
2021/08/15 11:50:22;;;;;;;1.85;1.55;;;30.70;44.40;;;;;;4986770;28;20035;-59
2021/08/15 11:52:50;;;;;;;1.75;1.33;;;30.70;44.30;;;;;;4985923;28;20097;-60
2021/08/15 11:55:21;;;;;;;1.38;1.27;;;30.70;44.30;;;;;;4977381;28;20043;-58
2021/08/15 11:57:51;;;;;;;1.60;1.50;;;30.80;44.40;;;;;;4980309;28;20045;-60
2021/08/15 12:00:26;;;;;;;1.83;1.27;;;30.80;44.30;;;;;;4985154;28;20452;-60
2021/08/15 12:03:07;;;;;;;0.93;0.80;;;30.80;44.30;;;;;;4972827;28;20118;-59
2021/08/15 12:05:43;;;;;;;1.55;1.45;;;30.80;44.20;;;;;;4966053;28;20046;-60
2021/08/15 12:08:10;;;;;;;;;;;30.90;44.30;;;;;;4987298;28;20069;-60
2021/08/15 12:10:43;;;;;;;1.65;0.85;;;30.80;44.20;;;;;;4985253;28;19925;-60
2021/08/15 12:13:24;;;;;;;2.47;0.88;;;30.80;44.20;;;;;;4983546;28;20133;-61
2021/08/15 12:15:53;;;;;;;0.80;0.75;;;30.90;44.20;;;;;;4983361;28;20482;-61
2021/08/15 12:18:28;;;;;;;2.03;1.25;;;30.90;44.20;;;;;;4983390;28;20034;-61
2021/08/15 12:20:58;;;;;;;1.45;1.00;;;30.90;44.10;;;;;;4983037;28;20071;-61
2021/08/15 12:23:25;;;;;;;1.77;1.10;;;30.90;44.10;;;;;;4987856;28;20047;-61
2021/08/15 12:26:08;;;;;;;1.80;1.63;;;31.00;44.10;;;;;;4973265;28;20046;-59
2021/08/15 12:28:37;;;;;;;1.10;0.70;;;31.00;44.00;;;;;;4976009;28;20126;-61
2021/08/15 12:31:21;;;;;;;2.55;0.98;;;31.00;44.00;;;;;;4959048;28;20474;-61
2021/08/15 12:33:49;;;;;;;3.03;1.10;;;31.10;43.90;;;;;;4979612;28;20051;-61
2021/08/15 12:36:19;;;;;;;2.72;0.90;;;31.00;43.90;;;;;;4982586;28;20125;-61
2021/08/15 12:38:46;;;;;;;1.63;1.10;;;31.10;43.90;;;;;;4984337;28;20456;-61
2021/08/15 12:41:29;;;;;;;2.25;1.05;;;31.10;43.80;;;;;;4986839;28;20053;-61
2021/08/15 12:44:07;;;;;;;1.35;1.17;;;31.10;43.70;;;;;;4984525;28;20050;-61
2021/08/15 12:46:34;;;;;;;2.47;0.95;;;31.20;43.80;;;;;;4988820;28;20046;-61
2021/08/15 12:49:20;;;;;;;1.55;1.00;;;31.20;43.80;;;;;;4986764;28;20081;-60
2021/08/15 12:51:50;;;;;;;1.08;0.90;;;31.30;44.40;;;;;;4986698;28;20579;-60
2021/08/15 12:54:18;;;;;;;3.03;1.17;;;31.20;43.70;;;;;;4987140;28;20065;-61
2021/08/15 12:56:45;;;;;;;1.00;0.88;;;31.30;43.70;;;;;;4988822;28;20063;-61
2021/08/15 12:59:12;;;;;;;0.90;0.90;;;31.30;43.60;;;;;;4989249;28;20049;-61